Time,TemperatureF,DewpointF,PressureIn,WindDirection,WindDirectionDegrees,WindSpeedMPH,WindSpeedGustMPH,Humidity,HourlyPrecipIn,Conditions,Clouds,dailyrainin,SolarRadiationWatts/m^2,SoftwareType,DateUTC
2013-05-06 00:00:00,46.0,39.5,29.52,SW,215,1.0,2.0,78,0.00,,,0.00,0,Wunderground v.1.15,2013-05-06 04:00:00,
2013-05-06 00:05:00,45.8,39.7,29.52,SSW,201,1.0,2.0,79,0.00,,,0.00,0,Wunderground v.1.15,2013-05-06 04:05:00,
2013-05-06 00:10:00,45.6,39.5,29.52,SSW,212,1.0,1.0,79,0.00,,,0.00,0,Wunderground v.1.15,2013-05-06 04:10:00,
2013-05-06 00:15:00,45.5,39.0,29.52,SSW,208,1.0,1.0,78,0.00,,,0.00,0,Wunderground v.1.15,2013-05-06 04:15:00,
2013-05-06 00:20:00,45.6,38.8,29.52,SSW,202,1.0,1.0,77,0.00,,,0.00,0,Wunderground v.1.15,2013-05-06 04:20:00,
2013-05-06 00:25:00,45.6,38.8,29.52,WSW,246,1.0,4.0,77,0.00,,,0.00,0,Wunderground v.1.15,2013-05-06 04:25:00,
2013-05-06 00:30:00,45.6,38.8,29.52,WSW,252,1.0,1.0,77,0.00,,,0.00,0,Wunderground v.1.15,2013-05-06 04:30:00,
2013-05-06 00:40:00,45.5,38.7,29.51,WSW,252,0.0,0.0,77,0.00,,,0.00,0,Wunderground v.1.15,2013-05-06 04:40:00,
2013-05-06 00:50:00,45.3,38.5,29.51,WSW,250,0.0,2.0,77,0.00,,,0.00,0,Wunderground v.1.15,2013-05-06 04:50:00,
2013-05-06 00:55:00,45.2,38.4,29.51,WSW,246,0.0,2.0,77,0.00,,,0.00,0,Wunderground v.1.15,2013-05-06 04:55:00,
2013-05-06 01:06:00,45.0,38.2,29.51,WSW,244,0.0,0.0,77,0.00,,,0.00,0,Wunderground v.1.15,2013-05-06 05:06:00,
2013-05-06 01:15:00,44.7,38.3,29.51,WSW,244,0.0,1.0,78,0.00,,,0.00,0,Wunderground v.1.15,2013-05-06 05:15:00,
2013-05-06 01:20:00,44.7,38.3,29.51,WSW,244,0.0,0.0,78,0.00,,,0.00,0,Wunderground v.1.15,2013-05-06 05:20:00,
2013-05-06 01:30:00,44.4,38.0,29.51,WSW,244,0.0,0.0,78,0.00,,,0.00,0,Wunderground v.1.15,2013-05-06 05:30:00,
2013-05-06 01:35:00,44.2,37.8,29.50,WSW,244,0.0,0.0,78,0.00,,,0.00,0,Wunderground v.1.15,2013-05-06 05:35:00,
2013-05-06 01:45:00,43.7,38.3,29.50,WSW,244,0.0,0.0,81,0.00,,,0.00,0,Wunderground v.1.15,2013-05-06 05:45:00,
2013-05-06 01:55:00,43.1,38.3,29.50,WSW,244,0.0,0.0,83,0.00,,,0.00,0,Wunderground v.1.15,2013-05-06 05:55:00,
2013-05-06 02:00:00,42.8,38.3,29.50,WSW,244,0.0,0.0,84,0.00,,,0.00,0,Wunderground v.1.15,2013-05-06 06:00:00,
2013-05-06 02:05:00,42.6,38.1,29.50,WSW,244,0.0,0.0,84,0.00,,,0.00,0,Wunderground v.1.15,2013-05-06 06:05:00,
2013-05-06 02:15:00,42.2,38.0,29.50,WSW,244,0.0,0.0,85,0.00,,,0.00,0,Wunderground v.1.15,2013-05-06 06:15:00,
2013-05-06 02:20:00,41.9,37.7,29.50,WSW,244,0.0,0.0,85,0.00,,,0.00,0,Wunderground v.1.15,2013-05-06 06:20:00,
2013-05-06 02:30:00,41.4,37.5,29.50,WSW,244,0.0,0.0,86,0.00,,,0.00,0,Wunderground v.1.15,2013-05-06 06:30:00,
2013-05-06 02:40:00,40.9,37.3,29.50,WSW,244,0.0,0.0,87,0.00,,,0.00,0,Wunderground v.1.15,2013-05-06 06:40:00,
2013-05-06 02:45:00,40.7,37.1,29.50,WSW,244,0.0,0.0,87,0.00,,,0.00,0,Wunderground v.1.15,2013-05-06 06:45:00,
2013-05-06 02:55:00,40.2,36.6,29.50,WSW,244,0.0,0.0,87,0.00,,,0.00,0,Wunderground v.1.15,2013-05-06 06:55:00,
2013-05-06 03:00:00,40.0,36.7,29.50,WSW,244,0.0,0.0,88,0.00,,,0.00,0,Wunderground v.1.15,2013-05-06 07:00:00,
2013-05-06 03:06:00,39.8,36.5,29.50,WSW,244,0.0,0.0,88,0.00,,,0.00,0,Wunderground v.1.15,2013-05-06 07:06:00,
2013-05-06 03:15:00,39.6,36.9,29.49,WSW,244,0.0,0.0,90,0.00,,,0.00,0,Wunderground v.1.15,2013-05-06 07:15:00,
2013-05-06 03:25:00,39.6,36.9,29.49,WSW,244,0.0,0.0,90,0.00,,,0.00,0,Wunderground v.1.15,2013-05-06 07:25:00,
2013-05-06 03:35:00,39.3,36.6,29.49,WSW,244,0.0,0.0,90,0.00,,,0.00,0,Wunderground v.1.15,2013-05-06 07:35:00,
2013-05-06 03:45:00,38.7,36.0,29.49,WSW,244,0.0,0.0,90,0.00,,,0.00,0,Wunderground v.1.15,2013-05-06 07:45:00,
2013-05-06 03:55:00,38.4,35.7,29.49,WSW,244,0.0,0.0,90,0.00,,,0.00,0,Wunderground v.1.15,2013-05-06 07:55:00,
2013-05-06 04:06:00,38.2,35.8,29.49,WSW,244,0.0,0.0,91,0.00,,,0.00,0,Wunderground v.1.15,2013-05-06 08:06:00,
2013-05-06 04:15:00,38.3,36.2,29.49,WSW,244,0.0,0.0,92,0.00,,,0.00,0,Wunderground v.1.15,2013-05-06 08:15:00,
2013-05-06 04:25:00,38.0,35.9,29.49,WSW,244,0.0,0.0,92,0.00,,,0.00,0,Wunderground v.1.15,2013-05-06 08:25:00,
2013-05-06 04:30:00,37.7,35.3,29.50,WSW,244,0.0,1.0,91,0.00,,,0.00,0,Wunderground v.1.15,2013-05-06 08:30:00,
2013-05-06 04:40:00,37.3,35.2,29.50,WSW,244,0.0,0.0,92,0.00,,,0.00,0,Wunderground v.1.15,2013-05-06 08:40:00,
2013-05-06 04:45:00,37.2,35.1,29.50,WSW,244,0.0,0.0,92,0.00,,,0.00,0,Wunderground v.1.15,2013-05-06 08:45:00,
2013-05-06 04:50:00,37.1,35.0,29.49,WSW,244,0.0,0.0,92,0.00,,,0.00,0,Wunderground v.1.15,2013-05-06 08:50:00,
2013-05-06 05:00:00,36.8,34.7,29.50,WSW,244,0.0,0.0,92,0.00,,,0.00,0,Wunderground v.1.15,2013-05-06 09:00:00,
2013-05-06 05:05:00,36.6,34.5,29.50,WSW,243,0.0,0.0,92,0.00,,,0.00,0,Wunderground v.1.15,2013-05-06 09:05:00,
2013-05-06 05:15:00,36.4,34.3,29.50,WSW,242,0.0,0.0,92,0.00,,,0.00,0,Wunderground v.1.15,2013-05-06 09:15:00,
2013-05-06 05:25:00,36.3,34.5,29.50,WSW,244,0.0,0.0,93,0.00,,,0.00,0,Wunderground v.1.15,2013-05-06 09:25:00,
2013-05-06 05:30:00,36.2,34.4,29.50,WSW,244,0.0,0.0,93,0.00,,,0.00,0,Wunderground v.1.15,2013-05-06 09:30:00,
2013-05-06 05:40:00,35.6,33.5,29.51,WSW,244,0.0,0.0,92,0.00,,,0.00,0,Wunderground v.1.15,2013-05-06 09:40:00,
2013-05-06 05:45:00,35.3,33.2,29.51,WSW,244,0.0,0.0,92,0.00,,,0.00,0,Wunderground v.1.15,2013-05-06 09:45:00,
2013-05-06 05:55:00,34.9,33.1,29.51,WSW,244,0.0,1.0,93,0.00,,,0.00,9,Wunderground v.1.15,2013-05-06 09:55:00,
2013-05-06 06:05:00,35.1,33.3,29.51,WSW,243,0.0,1.0,93,0.00,,,0.00,12,Wunderground v.1.15,2013-05-06 10:05:00,
2013-05-06 06:15:00,35.5,33.7,29.51,WSW,242,0.0,0.0,93,0.00,,,0.00,19,Wunderground v.1.15,2013-05-06 10:15:00,
2013-05-06 06:25:00,35.5,33.7,29.52,WSW,243,0.0,0.0,93,0.00,,,0.00,32,Wunderground v.1.15,2013-05-06 10:25:00,
2013-05-06 06:35:00,35.5,33.7,29.52,WSW,242,0.0,0.0,93,0.00,,,0.00,33,Wunderground v.1.15,2013-05-06 10:35:00,
2013-05-06 06:45:00,35.8,34.2,29.52,WSW,243,0.0,0.0,94,0.00,,,0.00,51,Wunderground v.1.15,2013-05-06 10:45:00,
2013-05-06 06:50:00,36.0,34.4,29.52,WSW,243,0.0,0.0,94,0.00,,,0.00,47,Wunderground v.1.15,2013-05-06 10:50:00,
2013-05-06 07:00:00,36.0,34.4,29.52,WSW,243,0.0,0.0,94,0.00,,,0.00,47,Wunderground v.1.15,2013-05-06 11:00:00,
2013-05-06 07:05:00,36.1,34.5,29.53,WSW,243,0.0,0.0,94,0.00,,,0.00,74,Wunderground v.1.15,2013-05-06 11:05:00,
2013-05-06 07:15:00,36.4,34.8,29.53,WSW,243,0.0,0.0,94,0.00,,,0.00,65,Wunderground v.1.15,2013-05-06 11:15:00,
2013-05-06 07:20:00,36.7,35.1,29.53,WSW,242,0.0,0.0,94,0.00,,,0.00,86,Wunderground v.1.15,2013-05-06 11:20:00,
2013-05-06 07:30:00,37.0,35.4,29.53,WSW,242,0.0,0.0,94,0.00,,,0.00,221,Wunderground v.1.15,2013-05-06 11:30:00,
2013-05-06 07:40:00,38.4,36.8,29.53,WSW,243,0.0,0.0,94,0.00,,,0.00,283,Wunderground v.1.15,2013-05-06 11:40:00,
2013-05-06 07:45:00,39.2,37.9,29.53,WSW,243,0.0,0.0,95,0.00,,,0.00,65,Wunderground v.1.15,2013-05-06 11:45:00,
2013-05-06 07:55:00,38.9,37.3,29.53,WSW,243,0.0,0.0,94,0.00,,,0.00,144,Wunderground v.1.15,2013-05-06 11:55:00,
2013-05-06 08:06:00,38.6,37.0,29.54,WSW,243,1.0,1.0,94,0.00,,,0.00,464,Wunderground v.1.15,2013-05-06 12:06:00,
2013-05-06 08:15:00,39.5,37.9,29.54,WSW,243,0.0,1.0,94,0.00,,,0.00,323,Wunderground v.1.15,2013-05-06 12:15:00,
2013-05-06 08:25:00,41.5,39.9,29.53,WSW,242,0.0,0.0,94,0.00,,,0.00,506,Wunderground v.1.15,2013-05-06 12:25:00,
2013-05-06 08:30:00,42.8,41.2,29.53,WSW,242,0.0,1.0,94,0.00,,,0.00,483,Wunderground v.1.15,2013-05-06 12:30:00,
2013-05-06 08:35:00,43.3,40.8,29.53,WSW,254,1.0,1.0,91,0.00,,,0.00,534,Wunderground v.1.15,2013-05-06 12:35:00,
2013-05-06 08:40:00,43.4,40.1,29.54,ENE,60,2.0,2.0,88,0.00,,,0.00,550,Wunderground v.1.15,2013-05-06 12:40:00,
2013-05-06 08:50:00,44.7,40.5,29.54,ENE,60,0.0,0.0,85,0.00,,,0.00,626,Wunderground v.1.15,2013-05-06 12:50:00,
2013-05-06 09:00:00,46.3,41.4,29.54,ENE,62,1.0,1.0,83,0.00,,,0.00,657,Wunderground v.1.15,2013-05-06 13:00:00,
2013-05-06 09:05:00,47.4,41.9,29.54,ENE,69,1.0,1.0,81,0.00,,,0.00,675,Wunderground v.1.15,2013-05-06 13:05:00,
2013-05-06 09:15:00,50.3,43.7,29.54,SE,132,1.0,1.0,78,0.00,,,0.00,705,Wunderground v.1.15,2013-05-06 13:15:00,
2013-05-06 09:25:00,52.1,42.6,29.54,SSW,205,1.0,2.0,70,0.00,,,0.00,735,Wunderground v.1.15,2013-05-06 13:25:00,
2013-05-06 09:35:00,52.8,42.9,29.54,SW,227,2.0,3.0,69,0.00,,,0.00,759,Wunderground v.1.15,2013-05-06 13:35:00,
2013-05-06 09:40:00,52.9,42.6,29.54,WSW,238,2.0,2.0,68,0.00,,,0.00,772,Wunderground v.1.15,2013-05-06 13:40:00,
2013-05-06 09:50:00,53.6,43.3,29.54,SW,226,3.0,4.0,68,0.00,,,0.00,800,Wunderground v.1.15,2013-05-06 13:50:00,
2013-05-06 10:00:00,54.3,42.8,29.54,SW,216,2.0,4.0,65,0.00,,,0.00,823,Wunderground v.1.15,2013-05-06 14:00:00,
2013-05-06 10:06:00,54.2,43.1,29.54,SSW,210,3.0,4.0,66,0.00,,,0.00,835,Wunderground v.1.15,2013-05-06 14:06:00,
2013-05-06 10:15:00,54.8,44.4,29.54,SW,227,2.0,3.0,68,0.00,,,0.00,854,Wunderground v.1.15,2013-05-06 14:15:00,
2013-05-06 10:25:00,56.8,44.3,29.54,SW,218,1.0,2.0,63,0.00,,,0.00,877,Wunderground v.1.15,2013-05-06 14:25:00,
2013-05-06 10:30:00,57.0,44.1,29.54,WSW,237,1.0,6.0,62,0.00,,,0.00,886,Wunderground v.1.15,2013-05-06 14:30:00,
2013-05-06 10:40:00,56.6,43.3,29.53,SW,216,2.0,2.0,61,0.00,,,0.00,905,Wunderground v.1.15,2013-05-06 14:40:00,
2013-05-06 10:45:00,57.3,42.6,29.53,WSW,244,2.0,2.0,58,0.00,,,0.00,916,Wunderground v.1.15,2013-05-06 14:45:00,
2013-05-06 10:55:00,58.5,42.8,29.53,West,264,2.0,3.0,56,0.00,,,0.00,930,Wunderground v.1.15,2013-05-06 14:55:00,
2013-05-06 11:05:00,58.4,42.8,29.53,SSE,165,2.0,2.0,56,0.00,,,0.00,946,Wunderground v.1.15,2013-05-06 15:05:00,
2013-05-06 11:15:00,59.0,41.9,29.52,WSW,254,2.0,2.0,53,0.00,,,0.00,956,Wunderground v.1.15,2013-05-06 15:15:00,
2013-05-06 11:20:00,59.2,43.5,29.52,SW,222,2.0,2.0,56,0.00,,,0.00,963,Wunderground v.1.15,2013-05-06 15:20:00,
2013-05-06 11:30:00,60.2,43.5,29.52,SW,229,2.0,3.0,54,0.00,,,0.00,972,Wunderground v.1.15,2013-05-06 15:30:00,
2013-05-06 11:40:00,61.2,43.4,29.52,SW,215,2.0,2.0,52,0.00,,,0.00,977,Wunderground v.1.15,2013-05-06 15:40:00,
2013-05-06 11:45:00,61.0,42.7,29.52,WSW,250,3.0,3.0,51,0.00,,,0.00,983,Wunderground v.1.15,2013-05-06 15:45:00,
2013-05-06 11:55:00,61.9,42.5,29.51,East,80,2.0,3.0,49,0.00,,,0.00,990,Wunderground v.1.15,2013-05-06 15:55:00,
2013-05-06 12:00:00,62.7,43.3,29.51,ENE,57,1.0,1.0,49,0.00,,,0.00,995,Wunderground v.1.15,2013-05-06 16:00:00,
2013-05-06 12:05:00,64.0,44.4,29.50,North,11,1.0,1.0,49,0.00,,,0.00,990,Wunderground v.1.15,2013-05-06 16:05:00,
2013-05-06 12:15:00,65.1,41.4,29.50,SW,232,2.0,3.0,42,0.00,,,0.00,1005,Wunderground v.1.15,2013-05-06 16:15:00,
2013-05-06 12:20:00,64.3,40.1,29.50,West,265,2.0,2.0,41,0.00,,,0.00,1005,Wunderground v.1.15,2013-05-06 16:20:00,
2013-05-06 12:30:00,64.7,40.4,29.50,WSW,239,2.0,3.0,41,0.00,,,0.00,1004,Wunderground v.1.15,2013-05-06 16:30:00,
2013-05-06 12:40:00,64.6,41.0,29.49,SW,226,2.0,2.0,42,0.00,,,0.00,1002,Wunderground v.1.15,2013-05-06 16:40:00,
2013-05-06 12:45:00,65.0,42.5,29.49,SSW,213,1.0,2.0,44,0.00,,,0.00,1007,Wunderground v.1.15,2013-05-06 16:45:00,
2013-05-06 12:55:00,67.4,44.7,29.49,SW,231,1.0,4.0,44,0.00,,,0.00,1013,Wunderground v.1.15,2013-05-06 16:55:00,
2013-05-06 13:00:00,66.5,39.4,29.49,SW,229,3.0,3.0,37,0.00,,,0.00,1011,Wunderground v.1.15,2013-05-06 17:00:00,
2013-05-06 13:05:00,66.6,41.5,29.48,SW,235,3.0,3.0,40,0.00,,,0.00,1004,Wunderground v.1.15,2013-05-06 17:05:00,
2013-05-06 13:15:00,67.0,42.5,29.48,West,264,2.0,2.0,41,0.00,,,0.00,997,Wunderground v.1.15,2013-05-06 17:15:00,
2013-05-06 13:20:00,67.2,43.3,29.48,SW,221,3.0,4.0,42,0.00,,,0.00,991,Wunderground v.1.15,2013-05-06 17:20:00,
2013-05-06 13:25:00,66.7,42.2,29.48,SW,225,4.0,4.0,41,0.00,,,0.00,991,Wunderground v.1.15,2013-05-06 17:25:00,
2013-05-06 13:35:00,67.7,43.8,29.48,SW,233,2.0,9.0,42,0.00,,,0.00,986,Wunderground v.1.15,2013-05-06 17:35:00,
2013-05-06 13:40:00,68.2,44.8,29.47,SSW,213,3.0,3.0,43,0.00,,,0.00,981,Wunderground v.1.15,2013-05-06 17:40:00,
2013-05-06 13:50:00,68.8,41.5,29.47,SW,223,3.0,4.0,37,0.00,,,0.00,977,Wunderground v.1.15,2013-05-06 17:50:00,
2013-05-06 13:55:00,67.9,40.7,29.47,SSW,209,4.0,4.0,37,0.00,,,0.00,972,Wunderground v.1.15,2013-05-06 17:55:00,
2013-05-06 14:00:00,67.6,40.4,29.47,WSW,240,4.0,6.0,37,0.00,,,0.00,965,Wunderground v.1.15,2013-05-06 18:00:00,
2013-05-06 14:05:00,68.3,43.0,29.47,SW,220,4.0,6.0,40,0.00,,,0.00,963,Wunderground v.1.15,2013-05-06 18:05:00,
2013-05-06 14:15:00,69.3,42.6,29.47,SSW,205,4.0,4.0,38,0.00,,,0.00,940,Wunderground v.1.15,2013-05-06 18:15:00,
2013-05-06 14:20:00,69.5,39.9,29.46,SW,232,3.0,4.0,34,0.00,,,0.00,935,Wunderground v.1.15,2013-05-06 18:20:00,
2013-05-06 14:30:00,69.1,41.0,29.46,SW,214,3.0,4.0,36,0.00,,,0.00,921,Wunderground v.1.15,2013-05-06 18:30:00,
2013-05-06 14:40:00,71.3,43.7,29.45,West,261,2.0,3.0,37,0.00,,,0.00,905,Wunderground v.1.15,2013-05-06 18:40:00,
2013-05-06 14:45:00,71.0,42.0,29.45,SW,216,3.0,4.0,35,0.00,,,0.00,895,Wunderground v.1.15,2013-05-06 18:45:00,
2013-05-06 14:55:00,70.4,42.9,29.45,SSW,211,3.0,4.0,37,0.00,,,0.00,867,Wunderground v.1.15,2013-05-06 18:55:00,
2013-05-06 15:06:00,70.8,41.8,29.44,WSW,237,2.0,4.0,35,0.00,,,0.00,838,Wunderground v.1.15,2013-05-06 19:06:00,
2013-05-06 15:15:00,70.6,40.9,29.45,SW,217,3.0,3.0,34,0.00,,,0.00,805,Wunderground v.1.15,2013-05-06 19:15:00,
2013-05-06 15:20:00,70.4,40.7,29.44,SW,215,4.0,4.0,34,0.00,,,0.00,788,Wunderground v.1.15,2013-05-06 19:20:00,
2013-05-06 15:30:00,70.6,43.1,29.43,SW,224,3.0,3.0,37,0.00,,,0.00,758,Wunderground v.1.15,2013-05-06 19:30:00,
2013-05-06 15:40:00,71.9,42.0,29.43,SW,235,3.0,3.0,34,0.00,,,0.00,759,Wunderground v.1.15,2013-05-06 19:40:00,
2013-05-06 15:50:00,71.8,43.4,29.43,WSW,253,3.0,5.0,36,0.00,,,0.00,700,Wunderground v.1.15,2013-05-06 19:50:00,
2013-05-06 16:00:00,71.3,41.5,29.43,SSW,209,4.0,4.0,34,0.00,,,0.00,526,Wunderground v.1.15,2013-05-06 20:00:00,
2013-05-06 16:05:00,71.0,42.0,29.42,SW,218,3.0,4.0,35,0.00,,,0.00,86,Wunderground v.1.15,2013-05-06 20:05:00,
2013-05-06 16:15:00,71.8,42.7,29.42,WSW,250,2.0,3.0,35,0.00,,,0.00,84,Wunderground v.1.15,2013-05-06 20:15:00,
2013-05-06 16:25:00,70.5,41.5,29.42,SW,234,4.0,4.0,35,0.00,,,0.00,86,Wunderground v.1.15,2013-05-06 20:25:00,
2013-05-06 16:30:00,70.6,41.6,29.42,SSW,207,3.0,3.0,35,0.00,,,0.00,86,Wunderground v.1.15,2013-05-06 20:30:00,
2013-05-06 16:40:00,70.8,42.5,29.42,SW,234,3.0,3.0,36,0.00,,,0.00,90,Wunderground v.1.15,2013-05-06 20:40:00,
2013-05-06 16:45:00,70.6,44.4,29.42,SW,232,3.0,3.0,39,0.00,,,0.00,91,Wunderground v.1.15,2013-05-06 20:45:00,
2013-05-06 16:50:00,70.9,44.7,29.42,WSW,250,3.0,3.0,39,0.00,,,0.00,91,Wunderground v.1.15,2013-05-06 20:50:00,
2013-05-06 17:00:00,70.7,45.2,29.41,SW,226,3.0,5.0,40,0.00,,,0.00,91,Wunderground v.1.15,2013-05-06 21:00:00,
2013-05-06 17:05:00,70.5,45.7,29.41,SW,226,4.0,5.0,41,0.00,,,0.00,91,Wunderground v.1.15,2013-05-06 21:05:00,
2013-05-06 17:15:00,70.2,45.4,29.41,SW,234,3.0,7.0,41,0.00,,,0.00,93,Wunderground v.1.15,2013-05-06 21:15:00,
2013-05-06 17:25:00,69.9,45.8,29.41,SW,232,4.0,6.0,42,0.00,,,0.00,88,Wunderground v.1.15,2013-05-06 21:25:00,
2013-05-06 17:35:00,69.5,46.6,29.41,SW,219,4.0,4.0,44,0.00,,,0.00,90,Wunderground v.1.15,2013-05-06 21:35:00,
2013-05-06 17:45:00,69.0,46.2,29.41,SW,224,3.0,4.0,44,0.00,,,0.00,91,Wunderground v.1.15,2013-05-06 21:45:00,
2013-05-06 17:55:00,69.0,45.6,29.41,SW,226,3.0,7.0,43,0.00,,,0.00,95,Wunderground v.1.15,2013-05-06 21:55:00,
2013-05-06 18:06:00,68.8,47.2,29.41,SW,217,3.0,4.0,46,0.00,,,0.00,86,Wunderground v.1.15,2013-05-06 22:06:00,
2013-05-06 18:15:00,68.5,46.3,29.41,SW,236,3.0,4.0,45,0.00,,,0.00,84,Wunderground v.1.15,2013-05-06 22:15:00,
2013-05-06 18:20:00,68.4,45.6,29.41,SW,214,3.0,3.0,44,0.00,,,0.00,84,Wunderground v.1.15,2013-05-06 22:20:00,
2013-05-06 18:30:00,67.7,46.2,29.41,SSW,211,3.0,3.0,46,0.00,,,0.00,79,Wunderground v.1.15,2013-05-06 22:30:00,
2013-05-06 18:40:00,67.1,45.6,29.41,SSW,201,2.0,4.0,46,0.00,,,0.00,88,Wunderground v.1.15,2013-05-06 22:40:00,
2013-05-06 18:45:00,66.9,45.4,29.41,SSW,211,3.0,4.0,46,0.00,,,0.00,162,Wunderground v.1.15,2013-05-06 22:45:00,
2013-05-06 18:55:00,66.6,45.7,29.41,SW,218,2.0,3.0,47,0.00,,,0.00,134,Wunderground v.1.15,2013-05-06 22:55:00,
2013-05-06 19:05:00,66.2,45.4,29.40,SW,219,3.0,3.0,47,0.00,,,0.00,93,Wunderground v.1.15,2013-05-06 23:05:00,
2013-05-06 19:10:00,66.0,45.2,29.41,SW,229,3.0,3.0,47,0.00,,,0.00,72,Wunderground v.1.15,2013-05-06 23:10:00,
2013-05-06 19:20:00,65.6,45.4,29.41,SW,225,2.0,2.0,48,0.00,,,0.00,46,Wunderground v.1.15,2013-05-06 23:20:00,
2013-05-06 19:25:00,65.3,45.6,29.41,SW,214,1.0,2.0,49,0.00,,,0.00,39,Wunderground v.1.15,2013-05-06 23:25:00,
2013-05-06 19:35:00,64.7,45.6,29.41,SSW,192,1.0,1.0,50,0.00,,,0.00,25,Wunderground v.1.15,2013-05-06 23:35:00,
2013-05-06 19:45:00,64.2,45.7,29.41,SSW,209,1.0,1.0,51,0.00,,,0.00,7,Wunderground v.1.15,2013-05-06 23:45:00,
2013-05-06 19:55:00,63.7,46.7,29.41,SW,226,2.0,2.0,54,0.00,,,0.00,0,Wunderground v.1.15,2013-05-06 23:55:00,
2013-05-06 20:00:00,63.4,47.4,29.41,SSW,211,3.0,3.0,56,0.00,,,0.00,0,Wunderground v.1.15,2013-05-07 00:00:00,
2013-05-06 20:06:00,63.2,48.2,29.41,WSW,252,3.0,4.0,58,0.00,,,0.00,0,Wunderground v.1.15,2013-05-07 00:06:00,
2013-05-06 20:15:00,62.7,48.2,29.42,SW,223,4.0,4.0,59,0.00,,,0.00,0,Wunderground v.1.15,2013-05-07 00:15:00,
2013-05-06 20:25:00,62.1,48.0,29.42,West,267,3.0,6.0,60,0.00,,,0.00,0,Wunderground v.1.15,2013-05-07 00:25:00,
2013-05-06 20:35:00,61.4,48.3,29.42,WSW,244,2.0,3.0,62,0.00,,,0.00,0,Wunderground v.1.15,2013-05-07 00:35:00,
2013-05-06 20:40:00,61.3,48.2,29.43,WSW,237,3.0,3.0,62,0.00,,,0.00,0,Wunderground v.1.15,2013-05-07 00:40:00,
2013-05-06 20:50:00,60.8,48.1,29.43,WSW,238,3.0,3.0,63,0.00,,,0.00,0,Wunderground v.1.15,2013-05-07 00:50:00,
2013-05-06 21:00:00,60.4,48.2,29.43,WSW,239,3.0,6.0,64,0.00,,,0.00,0,Wunderground v.1.15,2013-05-07 01:00:00,
2013-05-06 21:06:00,60.1,48.3,29.43,WNW,285,3.0,6.0,65,0.00,,,0.00,0,Wunderground v.1.15,2013-05-07 01:06:00,
2013-05-06 21:15:00,59.7,47.9,29.44,WSW,258,2.0,3.0,65,0.00,,,0.00,0,Wunderground v.1.15,2013-05-07 01:15:00,
2013-05-06 21:25:00,59.3,47.9,29.44,SW,236,2.0,2.0,66,0.00,,,0.00,0,Wunderground v.1.15,2013-05-07 01:25:00,
2013-05-06 21:35:00,59.0,48.1,29.45,WSW,252,3.0,3.0,67,0.00,,,0.00,0,Wunderground v.1.15,2013-05-07 01:35:00,
2013-05-06 21:40:00,59.0,48.4,29.45,SW,218,2.0,2.0,68,0.00,,,0.00,0,Wunderground v.1.15,2013-05-07 01:40:00,
2013-05-06 21:50:00,58.6,48.1,29.45,SSW,206,1.0,1.0,68,0.00,,,0.00,0,Wunderground v.1.15,2013-05-07 01:50:00,
2013-05-06 22:00:00,58.3,48.2,29.45,NNW,329,2.0,2.0,69,0.00,,,0.00,0,Wunderground v.1.15,2013-05-07 02:00:00,
2013-05-06 22:06:00,58.2,48.5,29.45,WNW,295,2.0,2.0,70,0.00,,,0.00,0,Wunderground v.1.15,2013-05-07 02:06:00,
2013-05-06 22:15:00,58.0,48.3,29.45,West,276,1.0,1.0,70,0.00,,,0.00,0,Wunderground v.1.15,2013-05-07 02:15:00,
2013-05-06 22:25:00,57.7,48.4,29.45,SW,223,1.0,3.0,71,0.00,,,0.00,0,Wunderground v.1.15,2013-05-07 02:25:00,
2013-05-06 22:30:00,57.5,48.2,29.45,SW,221,1.0,1.0,71,0.00,,,0.00,0,Wunderground v.1.15,2013-05-07 02:30:00,
2013-05-06 22:35:00,57.4,48.4,29.45,North,360,1.0,1.0,72,0.00,,,0.00,0,Wunderground v.1.15,2013-05-07 02:35:00,
2013-05-06 22:45:00,57.1,48.5,29.45,SW,227,1.0,1.0,73,0.00,,,0.00,0,Wunderground v.1.15,2013-05-07 02:45:00,
2013-05-06 22:55:00,56.9,48.3,29.45,SW,228,2.0,2.0,73,0.00,,,0.00,0,Wunderground v.1.15,2013-05-07 02:55:00,
2013-05-06 23:00:00,56.8,48.6,29.45,SSW,192,1.0,1.0,74,0.00,,,0.00,0,Wunderground v.1.15,2013-05-07 03:00:00,
2013-05-06 23:06:00,56.7,48.5,29.45,WSW,253,2.0,2.0,74,0.00,,,0.00,0,Wunderground v.1.15,2013-05-07 03:06:00,
2013-05-06 23:15:00,56.4,48.6,29.45,SW,225,1.0,1.0,75,0.00,,,0.00,0,Wunderground v.1.15,2013-05-07 03:15:00,
2013-05-06 23:20:00,56.2,48.4,29.44,SW,223,1.0,2.0,75,0.00,,,0.00,0,Wunderground v.1.15,2013-05-07 03:20:00,
2013-05-06 23:30:00,56.0,48.5,29.44,SW,229,1.0,1.0,76,0.00,,,0.00,0,Wunderground v.1.15,2013-05-07 03:30:00,
2013-05-06 23:40:00,56.0,48.5,29.44,WSW,242,1.0,1.0,76,0.00,,,0.00,0,Wunderground v.1.15,2013-05-07 03:40:00,
2013-05-06 23:45:00,55.9,48.4,29.44,WSW,242,0.0,1.0,76,0.00,,,0.00,0,Wunderground v.1.15,2013-05-07 03:45:00,
2013-05-06 23:55:00,55.6,48.5,29.44,WSW,242,0.0,0.0,77,0.00,,,0.00,0,Wunderground v.1.15,2013-05-07 03:55:00,